createdAt,value
2022-12-08T00:02:20.061Z,21.07
2022-12-08T00:05:06.601Z,15.23
2022-12-08T00:07:54.194Z,19.07
2022-12-08T00:10:47.744Z,18.43
2022-12-08T00:13:11.493Z,18.77
2022-12-08T00:15:39.920Z,18.77
2022-12-08T00:18:08.333Z,18.60
2022-12-08T00:20:36.977Z,17.57
2022-12-08T00:23:07.084Z,17.43
2022-12-08T00:25:37.366Z,19.10
2022-12-08T00:28:05.876Z,17.97
2022-12-08T00:30:34.343Z,18.73
2022-12-08T00:33:02.786Z,18.43
2022-12-08T00:35:31.441Z,16.90
2022-12-08T00:38:01.095Z,17.30
2022-12-08T00:40:31.441Z,18.07
2022-12-08T00:42:59.955Z,17.10
2022-12-08T00:45:28.507Z,16.63
2022-12-08T00:47:57.255Z,21.53
2022-12-08T00:50:26.465Z,17.73
2022-12-08T00:52:55.383Z,17.00
2022-12-08T00:55:24.252Z,16.30
2022-12-08T00:57:54.553Z,17.57
2022-12-08T01:00:23.387Z,15.10
2022-12-08T01:02:51.826Z,18.90
2022-12-08T01:05:20.146Z,20.87
2022-12-08T01:07:49.586Z,18.57
2022-12-08T01:10:18.413Z,16.40
2022-12-08T01:12:46.780Z,17.63
2022-12-08T01:15:16.879Z,14.90
2022-12-08T01:17:45.399Z,19.87
2022-12-08T01:20:14.059Z,15.73
2022-12-08T01:22:42.557Z,16.20
2022-12-08T01:25:11.171Z,14.40
2022-12-08T01:27:39.641Z,13.83
2022-12-08T01:30:08.663Z,13.53
2022-12-08T01:32:38.610Z,16.87
2022-12-08T01:35:07.322Z,15.13
2022-12-08T01:37:36.164Z,15.50
2022-12-08T01:40:04.771Z,16.40
2022-12-08T01:42:34.538Z,20.10
2022-12-08T01:45:04.653Z,22.23
2022-12-08T01:47:36.543Z,12.67
2022-12-08T01:50:08.854Z,16.13
2022-12-08T01:52:39.765Z,17.33
2022-12-08T01:55:10.818Z,14.30
2022-12-08T01:57:42.266Z,18.00
2022-12-08T02:00:13.198Z,17.40
2022-12-08T02:02:48.573Z,17.77
2022-12-08T02:05:18.980Z,16.83
2022-12-08T02:07:48.236Z,16.13
2022-12-08T02:10:21.589Z,17.07
2022-12-08T02:12:52.241Z,19.60
2022-12-08T02:15:20.997Z,16.97
2022-12-08T02:17:56.807Z,17.07
2022-12-08T02:20:30.009Z,16.07
2022-12-08T02:23:06.401Z,17.23
2022-12-08T02:25:47.915Z,16.50
2022-12-08T02:28:39.182Z,16.90
2022-12-08T02:31:13.320Z,22.43
2022-12-08T02:34:10.806Z,16.87
2022-12-08T02:36:41.400Z,18.63
2022-12-08T02:39:19.525Z,14.50
2022-12-08T02:41:50.282Z,17.50
2022-12-08T02:44:21.509Z,15.40
2022-12-08T02:46:52.927Z,16.43
2022-12-08T02:49:22.940Z,14.23
2022-12-08T02:51:51.424Z,14.70
2022-12-08T02:54:19.841Z,18.37
2022-12-08T02:57:06.501Z,18.80
2022-12-08T02:59:54.685Z,14.03
2022-12-08T03:02:46.664Z,14.03
2022-12-08T03:05:40.611Z,16.57
2022-12-08T03:08:11.271Z,19.47
2022-12-08T03:10:44.364Z,15.27
2022-12-08T03:13:15.893Z,17.40
2022-12-08T03:15:48.092Z,16.63
2022-12-08T03:18:17.908Z,16.90
2022-12-08T03:20:49.147Z,15.37
2022-12-08T03:23:19.277Z,16.63
2022-12-08T03:25:51.394Z,17.53
2022-12-08T03:28:20.052Z,19.33
2022-12-08T03:30:53.486Z,18.03
2022-12-08T03:33:26.227Z,16.13
2022-12-08T03:35:56.758Z,18.80
2022-12-08T03:38:25.314Z,17.30
2022-12-08T03:41:07.591Z,17.97
2022-12-08T03:43:36.030Z,15.43
2022-12-08T03:46:04.778Z,17.07
2022-12-08T03:48:33.455Z,15.47
2022-12-08T03:51:05.364Z,23.03
2022-12-08T03:53:33.765Z,22.23
2022-12-08T03:56:02.078Z,14.20
2022-12-08T03:58:35.809Z,18.40
2022-12-08T04:01:05.704Z,16.97
2022-12-08T04:03:34.050Z,17.67
2022-12-08T04:06:04.070Z,18.60
2022-12-08T04:08:32.474Z,17.60
2022-12-08T04:11:00.850Z,16.97
2022-12-08T04:13:29.264Z,17.47
2022-12-08T04:15:58.335Z,18.10
2022-12-08T04:18:26.888Z,15.30
2022-12-08T04:20:55.530Z,16.30
2022-12-08T04:23:25.528Z,16.50
2022-12-08T04:25:54.474Z,16.00
2022-12-08T04:28:23.120Z,14.97
2022-12-08T04:30:52.549Z,15.20
2022-12-08T04:33:21.159Z,17.30
2022-12-08T04:35:49.873Z,16.43
2022-12-08T04:38:18.690Z,16.67
2022-12-08T04:40:48.640Z,17.50
2022-12-08T04:43:17.052Z,17.00
2022-12-08T04:45:45.565Z,14.70
2022-12-08T04:48:14.258Z,17.03
2022-12-08T04:50:43.198Z,17.70
2022-12-08T04:53:11.966Z,19.10
2022-12-08T04:55:41.368Z,15.63
2022-12-08T04:58:13.390Z,17.27
2022-12-08T05:00:42.058Z,16.23
2022-12-08T05:03:10.497Z,16.23
2022-12-08T05:05:38.884Z,16.60
2022-12-08T05:08:07.795Z,16.90
2022-12-08T05:10:38.130Z,16.57
2022-12-08T05:13:06.806Z,17.53
2022-12-08T05:15:39.294Z,18.57
2022-12-08T05:18:09.304Z,17.50
2022-12-08T05:20:39.524Z,17.60
2022-12-08T05:23:08.023Z,18.03
2022-12-08T05:25:36.635Z,16.20
2022-12-08T05:28:32.838Z,17.47
2022-12-08T05:30:55.450Z,16.33
2022-12-08T05:33:23.815Z,18.30
2022-12-08T05:35:52.728Z,16.57
2022-12-08T05:38:21.694Z,16.03
2022-12-08T05:40:50.263Z,17.07
2022-12-08T05:43:18.639Z,14.17
2022-12-08T05:45:47.227Z,16.70
2022-12-08T05:48:17.183Z,19.43
2022-12-08T05:50:48.747Z,19.00
2022-12-08T05:53:17.708Z,15.03
2022-12-08T05:55:46.277Z,21.13
2022-12-08T05:58:15.629Z,17.20
2022-12-08T06:00:44.792Z,14.77
2022-12-08T06:03:13.803Z,20.23
2022-12-08T06:05:44.135Z,22.33
2022-12-08T06:08:12.895Z,15.60
2022-12-08T06:10:42.486Z,18.30
2022-12-08T06:13:10.998Z,16.83
2022-12-08T06:15:40.144Z,16.10
2022-12-08T06:18:08.721Z,15.53
2022-12-08T06:20:37.566Z,21.00
2022-12-08T06:23:07.669Z,16.90
2022-12-08T06:25:36.648Z,16.70
2022-12-08T06:28:07.794Z,17.37
2022-12-08T06:30:36.863Z,16.67
2022-12-08T06:33:05.328Z,18.27
2022-12-08T06:35:34.946Z,22.13
2022-12-08T06:38:03.723Z,29.33
2022-12-08T06:40:36.335Z,18.90
2022-12-08T06:43:06.345Z,16.77
2022-12-08T06:45:36.152Z,15.60
2022-12-08T06:48:05.048Z,25.40
2022-12-08T06:50:35.398Z,16.27
2022-12-08T06:53:05.628Z,18.23
2022-12-08T06:58:26.542Z,18.17
2022-12-08T07:00:55.229Z,26.13
2022-12-08T07:03:24.056Z,25.40
2022-12-08T07:06:01.924Z,22.53
2022-12-08T07:08:32.623Z,26.37
2022-12-08T07:11:08.363Z,18.67
2022-12-08T07:13:39.744Z,20.20
2022-12-08T07:16:08.992Z,18.50
2022-12-08T07:18:37.749Z,19.50
2022-12-08T07:21:07.126Z,22.70
2022-12-08T07:23:35.960Z,26.10
2022-12-08T07:26:13.894Z,25.07
2022-12-08T07:28:46.589Z,25.37
2022-12-08T07:31:23.204Z,22.40
2022-12-08T07:34:07.682Z,23.40
2022-12-08T07:36:41.924Z,20.83
2022-12-08T07:39:11.920Z,22.73
2022-12-08T07:41:42.927Z,20.13
2022-12-08T07:44:12.456Z,16.37
2022-12-08T07:46:41.733Z,18.77
2022-12-08T07:49:10.982Z,16.57
2022-12-08T07:51:40.683Z,15.60
2022-12-08T07:57:11.092Z,19.37
2022-12-08T07:59:40.735Z,16.17
2022-12-08T08:02:24.053Z,21.83
2022-12-08T08:04:57.556Z,21.20
2022-12-08T08:07:28.590Z,16.07
2022-12-08T08:10:10.224Z,19.73
2022-12-08T08:12:44.736Z,18.07
2022-12-08T08:15:18.236Z,20.00
2022-12-08T08:17:55.249Z,19.23
2022-12-08T08:20:30.035Z,18.73
2022-12-08T08:23:19.476Z,19.00
2022-12-08T08:25:54.793Z,16.10
2022-12-08T08:28:27.355Z,19.17
2022-12-08T08:31:01.096Z,19.43
2022-12-08T08:33:34.703Z,20.37
2022-12-08T08:44:15.596Z,16.93
2022-12-08T08:46:45.785Z,24.97
2022-12-08T08:49:21.983Z,17.40
2022-12-08T08:55:00.193Z,15.30
2022-12-08T09:00:31.556Z,16.63
2022-12-08T09:03:32.598Z,22.03
2022-12-08T09:09:26.205Z,19.60
2022-12-08T09:12:12.640Z,17.43
2022-12-08T09:17:32.595Z,17.97
2022-12-08T09:20:10.935Z,19.77
2022-12-08T09:22:44.203Z,21.57
2022-12-08T09:25:14.079Z,20.30
2022-12-08T09:27:44.380Z,19.27
2022-12-08T09:34:53.350Z,18.90
2022-12-08T09:45:28.582Z,17.87
2022-12-08T09:53:35.636Z,17.63
2022-12-08T09:56:10.098Z,16.67
2022-12-08T09:59:03.793Z,17.93
2022-12-08T10:01:55.594Z,17.17
2022-12-08T10:04:28.826Z,17.10
2022-12-08T10:07:05.782Z,19.03
2022-12-08T10:09:43.031Z,16.80
2022-12-08T10:12:15.936Z,18.53
2022-12-08T10:14:45.531Z,16.83
2022-12-08T10:17:19.446Z,19.90
2022-12-08T10:19:48.268Z,19.63
2022-12-08T10:22:19.899Z,18.10
2022-12-08T10:24:55.507Z,17.97
2022-12-08T10:27:24.629Z,18.53
2022-12-08T10:30:19.375Z,19.77
2022-12-08T10:32:49.674Z,17.67
2022-12-08T10:35:20.088Z,17.47
2022-12-08T10:37:58.507Z,17.67
2022-12-08T11:11:29.405Z,18.57
2022-12-08T11:14:06.071Z,19.03
2022-12-08T11:34:35.482Z,22.10
2022-12-08T11:37:18.721Z,17.40
2022-12-08T11:39:51.467Z,21.70
2022-12-08T11:46:08.065Z,21.13
2022-12-08T11:48:41.488Z,20.63
2022-12-08T11:51:13.917Z,19.63
2022-12-08T11:53:48.481Z,18.30
2022-12-08T11:56:22.612Z,19.97
2022-12-08T11:59:05.316Z,20.70
2022-12-08T12:01:39.298Z,17.53
2022-12-08T12:04:21.006Z,18.30
2022-12-08T12:07:06.572Z,20.60
2022-12-08T12:09:42.971Z,21.57
2022-12-08T12:12:19.865Z,20.63
2022-12-08T12:15:15.999Z,18.90
2022-12-08T12:20:51.715Z,18.03
2022-12-08T12:29:40.299Z,19.13
2022-12-08T12:32:09.973Z,20.27
2022-12-08T12:34:43.069Z,23.67
2022-12-08T12:37:19.246Z,19.60
2022-12-08T12:39:50.114Z,19.23
2022-12-08T12:42:40.808Z,21.03
2022-12-08T12:45:31.744Z,18.53
2022-12-08T12:48:16.492Z,20.70
2022-12-08T12:51:00.468Z,20.20
2022-12-08T12:53:48.528Z,16.13
2022-12-08T12:56:53.497Z,22.17
2022-12-08T12:59:34.964Z,20.00
2022-12-08T13:02:21.505Z,20.20
2022-12-08T13:05:10.487Z,19.83
2022-12-08T13:07:45.620Z,20.90
2022-12-08T13:10:19.655Z,23.37
2022-12-08T13:13:02.998Z,17.83
2022-12-08T13:15:37.534Z,18.93
2022-12-08T13:18:08.690Z,24.97
2022-12-08T13:20:46.037Z,20.07
2022-12-08T13:23:32.221Z,22.20
2022-12-08T13:26:19.016Z,19.70
2022-12-08T13:29:24.153Z,19.40
2022-12-08T13:31:56.473Z,20.93
2022-12-08T13:34:36.691Z,22.17
2022-12-08T13:37:20.271Z,20.60
2022-12-08T13:39:52.773Z,16.03
2022-12-08T13:42:25.263Z,19.27
2022-12-08T13:45:22.328Z,21.07
2022-12-08T14:00:00.797Z,21.27
2022-12-08T14:02:45.353Z,20.77
2022-12-08T14:08:42.932Z,18.77
2022-12-08T14:17:34.182Z,21.30
2022-12-08T14:23:20.448Z,17.30
2022-12-08T14:25:51.913Z,21.87
2022-12-08T14:32:01.317Z,20.37
2022-12-08T14:34:32.642Z,19.87
2022-12-08T14:37:05.903Z,19.30
2022-12-08T14:45:14.506Z,19.67
2022-12-08T14:47:49.158Z,23.67
2022-12-08T14:53:31.489Z,20.17
2022-12-08T14:56:15.209Z,21.03
2022-12-08T14:58:46.326Z,19.03
2022-12-08T15:01:21.602Z,23.40
2022-12-08T15:07:05.720Z,20.03
2022-12-08T15:09:39.731Z,22.73
2022-12-08T15:12:09.007Z,20.03
2022-12-08T15:20:58.218Z,18.17
2022-12-08T15:23:40.503Z,19.80
2022-12-08T15:26:25.062Z,20.43
2022-12-08T15:28:58.843Z,17.60
2022-12-08T15:31:27.850Z,25.00
2022-12-08T15:33:57.829Z,20.37
2022-12-08T15:36:46.119Z,17.63
2022-12-08T15:45:57.518Z,19.63
2022-12-08T15:54:19.668Z,18.80
2022-12-08T15:57:18.425Z,14.47
2022-12-08T16:12:13.863Z,21.73
2022-12-08T16:33:02.453Z,19.97
2022-12-08T17:13:27.869Z,19.80
2022-12-08T17:19:09.660Z,21.73
2022-12-08T17:21:42.413Z,22.63
2022-12-08T17:30:00.584Z,25.83
2022-12-08T17:32:35.138Z,25.43
2022-12-08T17:35:17.224Z,24.77
2022-12-08T17:55:07.755Z,20.83
2022-12-08T17:57:54.196Z,21.63
2022-12-08T18:03:34.194Z,20.93
2022-12-08T18:06:22.408Z,21.87
2022-12-08T18:08:54.692Z,22.70
2022-12-08T18:11:35.775Z,22.87
2022-12-08T18:14:23.211Z,24.63
2022-12-08T18:26:16.992Z,21.70
2022-12-08T18:31:57.426Z,21.23
2022-12-08T18:51:07.811Z,24.03
2022-12-08T18:53:36.978Z,25.27
2022-12-08T18:56:07.632Z,26.93
2022-12-08T18:58:37.453Z,24.93
2022-12-08T19:01:07.706Z,22.60
2022-12-08T19:03:36.302Z,26.53
2022-12-08T19:06:15.471Z,21.80
2022-12-08T19:08:48.680Z,25.77
2022-12-08T19:11:24.432Z,22.67
2022-12-08T19:13:54.157Z,30.80
2022-12-08T19:16:23.480Z,24.80
2022-12-08T19:18:54.571Z,23.73
2022-12-08T19:21:27.603Z,34.30
2022-12-08T19:23:58.382Z,28.23
2022-12-08T19:26:27.676Z,30.33
2022-12-08T19:29:13.439Z,23.50
2022-12-08T19:31:43.011Z,25.13
2022-12-08T19:37:12.987Z,31.53
2022-12-08T19:40:01.718Z,26.07
2022-12-08T19:45:23.557Z,24.20
2022-12-08T19:48:08.370Z,28.30
2022-12-08T19:53:33.309Z,26.03
2022-12-08T20:08:14.414Z,28.50
2022-12-08T20:11:19.832Z,34.13
2022-12-08T20:13:55.159Z,32.17
2022-12-08T20:16:29.920Z,34.43
2022-12-08T20:19:03.182Z,31.03
2022-12-08T20:21:50.334Z,32.77
2022-12-08T20:24:20.539Z,30.27
2022-12-08T20:26:57.289Z,32.37
2022-12-08T20:36:57.859Z,31.23
2022-12-08T20:39:37.016Z,29.83
2022-12-08T20:42:10.023Z,27.70
2022-12-08T20:44:43.472Z,31.57
2022-12-08T20:58:18.918Z,28.23
2022-12-08T21:00:47.747Z,24.77
2022-12-08T21:03:17.633Z,25.23
2022-12-08T21:05:49.440Z,26.63
2022-12-08T21:08:18.133Z,22.80
2022-12-08T21:10:46.748Z,26.90
2022-12-08T21:13:15.427Z,27.20
2022-12-08T21:15:48.291Z,32.03
2022-12-08T21:18:17.360Z,32.47
2022-12-08T21:20:47.651Z,28.33
2022-12-08T21:23:16.585Z,30.40
2022-12-08T21:25:47.291Z,30.77
2022-12-08T21:28:16.611Z,25.60
2022-12-08T21:30:48.411Z,33.50
2022-12-08T21:33:19.219Z,30.80
2022-12-08T21:35:50.472Z,29.43
2022-12-08T21:41:45.497Z,36.83
2022-12-08T21:44:17.147Z,41.53
2022-12-08T21:47:10.910Z,37.33
2022-12-08T21:49:46.190Z,39.60
2022-12-08T21:52:21.470Z,41.40
2022-12-08T21:57:28.591Z,33.20
2022-12-08T22:00:01.078Z,41.17
2022-12-08T22:02:31.729Z,30.60
2022-12-08T22:05:04.907Z,31.30
2022-12-08T22:07:35.052Z,32.97
2022-12-08T22:10:13.120Z,33.63
2022-12-08T22:16:00.632Z,31.70
2022-12-08T22:18:30.961Z,31.67
2022-12-08T22:21:06.896Z,32.33
2022-12-08T22:23:56.145Z,32.57
2022-12-08T22:26:32.242Z,31.17
2022-12-08T22:29:02.075Z,33.90
2022-12-08T22:31:32.985Z,33.10
2022-12-08T22:34:08.254Z,31.87
2022-12-08T22:36:41.426Z,38.47
2022-12-08T22:39:11.128Z,33.23
2022-12-08T22:41:41.340Z,34.07
2022-12-08T22:44:16.954Z,37.40
2022-12-08T22:46:53.284Z,33.93
2022-12-08T22:52:14.575Z,34.97
2022-12-08T22:57:54.661Z,35.97
2022-12-08T23:00:29.063Z,32.87
2022-12-08T23:03:04.796Z,32.17
2022-12-08T23:05:49.797Z,33.90
2022-12-08T23:11:21.831Z,37.00
2022-12-08T23:13:51.880Z,34.83
2022-12-08T23:16:22.037Z,39.40
2022-12-08T23:18:59.283Z,40.37
2022-12-08T23:21:30.160Z,38.97
2022-12-08T23:23:59.946Z,38.50
2022-12-08T23:26:36.704Z,37.83
2022-12-08T23:29:06.218Z,41.03
2022-12-08T23:31:48.827Z,37.83
2022-12-08T23:34:32.628Z,43.57
2022-12-08T23:37:17.542Z,40.63
2022-12-08T23:39:46.909Z,39.93
2022-12-08T23:42:37.248Z,38.87
2022-12-08T23:48:27.566Z,34.70
2022-12-08T23:59:31.408Z,30.53
